Bookmark and Share
Track history (hours):
 

Neptune Pioneer

Last reported at 2014-Apr-10 18:26 UTC. Time now 2014-Apr-24 00:25 UTC.
Position N 24°38' W 120°56'.
Warning: this ship's position is 13 days out of date.

Length 190 m; draft 11.6 m.

Type: Cargo ship. MMSI: 372723000.

NotesDate/timePositionNaut miles runAvg speedWind from/ knotsBaromVisibWave heightAir tempDewpointWater temp
2014-Apr-10 18:26N 24°38' W 120°56'1613.2
2014-Apr-10 17:15N 24°51' W 121°05'3412.5
2014-Apr-10 14:33N 25°22' W 121°18'2612.7
2014-Apr-10 12:33N 25°46' W 121°29'1312.8
2014-Apr-10 11:32N 25°57' W 121°35'1412.9
2014-Apr-10 10:28N 26°10' W 121°42'1612.8
2014-Apr-10 09:13N 26°25' W 121°49'812.5
2014-Apr-10 08:33N 26°32' W 121°53'1412.7
2014-Apr-10 07:28N 26°45' W 121°59'1212.8
2014-Apr-10 06:33N 26°55' W 122°05'1312.8
2014-Apr-10 05:33N 27°07' W 122°10'1312.8
2014-Apr-10 04:33N 27°19' W 122°16'1312.8
2014-Apr-10 03:33N 27°30' W 122°22'1312.7
2014-Apr-10 02:33N 27°42' W 122°28'1312.6
2014-Apr-10 01:33N 27°54' W 122°34'1312.7
2014-Apr-10 00:33N 28°05' W 122°40'1313.0
2014-Apr-09 23:33N 28°17' W 122°45'1312.9
2014-Apr-09 22:33N 28°29' W 122°51'1313.1
2014-Apr-09 21:33N 28°41' W 122°57'1313.3
2014-Apr-09 20:33N 28°53' W 123°04'1313.4
2014-Apr-09 19:33N 29°05' W 123°10'1313.3
2014-Apr-09 18:33N 29°17' W 123°17'1313.1
2014-Apr-09 17:33N 29°29' W 123°24'1313.2
2014-Apr-09 16:33N 29°41' W 123°29'1313.4
2014-Apr-09 15:33N 29°53' W 123°35'1813.3
2014-Apr-09 14:14N 30°10' W 123°43'912.8
2014-Apr-09 13:30N 30°18' W 123°48'1212.9
2014-Apr-09 12:33N 30°29' W 123°53'1312.9
2014-Apr-09 11:33N 30°41' W 123°60'1913.0
2014-Apr-09 10:07N 30°58' W 124°09'16813.1
2014-Apr-08 21:18N 33°32' W 125°30'1413.1
2014-Apr-08 20:13N 33°45' W 125°37'4913.1
2014-Apr-08 16:30N 34°29' W 126°01'1313.5
2014-Apr-08 15:33N 34°41' W 126°07'1413.9
2014-Apr-08 14:32N 34°54' W 126°14'1313.6
2014-Apr-08 13:33N 35°06' W 126°21'1513.5
2014-Apr-08 12:25N 35°20' W 126°29'2413.0
2014-Apr-08 10:33N 35°42' W 126°41'1312.9
2014-Apr-08 09:33N 35°54' W 126°47'1313.0
2014-Apr-08 08:33N 36°06' W 126°54'2812.8
2014-Apr-08 06:20N 36°32' W 127°08'1012.6
2014-Apr-08 05:31N 36°41' W 127°13'  
2014-Apr-05 14:32N 48°28' W 125°40'1212.0
2014-Apr-05 13:33N 48°31' W 125°23'1412.2
2014-Apr-05 12:27N 48°31' W 125°03'2811.8
2014-Apr-05 10:04N 48°25' W 124°22'712.5
2014-Apr-05 09:32N 48°22' W 124°12'1413.0
2014-Apr-05 08:27N 48°17' W 123°52'1112.9
2014-Apr-05 07:33N 48°16' W 123°35'1110.7
2014-Apr-05 06:34N 48°23' W 123°24'10 9.7
2014-Apr-05 05:34N 48°29' W 123°13'1312.5
2014-Apr-05 04:33N 48°42' W 123°15'1111.4
2014-Apr-05 03:33N 48°48' W 123°01'1312.7
2014-Apr-05 02:33N 48°58' W 123°14'1211.6
2014-Apr-05 01:33N 49°08' W 123°23'1212.2
2014-Apr-05 00:33N 49°19' W 123°15'8 8.1
2014-Apr-04 23:33N 49°18' W 123°03'0 0.2
2014-Apr-04 22:33N 49°18' W 123°03'0 0.0
2014-Apr-04 21:33N 49°18' W 123°03'0 0.0
2014-Apr-04 20:33N 49°18' W 123°03'0 0.0
2014-Apr-04 19:33N 49°18' W 123°03'0 0.0
2014-Apr-04 18:33N 49°18' W 123°03'0 0.0
2014-Apr-04 17:33N 49°18' W 123°03'0 0.0
2014-Apr-04 16:33N 49°18' W 123°03'0 0.0
2014-Apr-04 15:33N 49°18' W 123°03'0 0.0
2014-Apr-04 14:33N 49°18' W 123°03'0 0.0
2014-Apr-04 13:33N 49°18' W 123°03'0 0.0
2014-Apr-04 12:33N 49°18' W 123°03'0 0.0
2014-Apr-04 11:33N 49°18' W 123°03'0 0.0
2014-Apr-04 10:33N 49°18' W 123°03'0 0.0
2014-Apr-04 09:33N 49°18' W 123°03'0 0.0
2014-Apr-04 08:33N 49°18' W 123°03'0 0.0
2014-Apr-04 07:33N 49°18' W 123°03'0 0.0
2014-Apr-04 06:33N 49°18' W 123°03'0 0.0
2014-Apr-04 05:33N 49°18' W 123°03'0 0.0
2014-Apr-04 04:33N 49°18' W 123°03'0 0.0
2014-Apr-04 03:33N 49°18' W 123°03'0 0.0
2014-Apr-04 02:33N 49°18' W 123°03'0 0.0
2014-Apr-04 01:33N 49°18' W 123°03'0 0.0
2014-Apr-04 00:33N 49°18' W 123°03'0 0.0
2014-Apr-03 23:33N 49°18' W 123°03'0 0.0
2014-Apr-03 22:33N 49°18' W 123°03'0 0.0
2014-Apr-03 21:33N 49°18' W 123°03'0 0.0
2014-Apr-03 20:33N 49°18' W 123°03'0 0.0
2014-Apr-03 19:33N 49°18' W 123°03'0 0.0
2014-Apr-03 18:33N 49°18' W 123°03'0 0.0
2014-Apr-03 17:33N 49°18' W 123°03'0 0.0
2014-Apr-03 16:33N 49°18' W 123°03'0 0.0
2014-Apr-03 15:33N 49°18' W 123°03'0 0.0
2014-Apr-03 14:33N 49°18' W 123°03'0 0.0
2014-Apr-03 13:33N 49°18' W 123°03'0 0.0
2014-Apr-03 12:33N 49°18' W 123°03'0 0.0
2014-Apr-03 11:33N 49°18' W 123°03'0 0.0
2014-Apr-03 10:33N 49°18' W 123°03'0 0.0
2014-Apr-03 09:33N 49°18' W 123°03'0 0.0
2014-Apr-03 08:33N 49°18' W 123°03'0 0.0
2014-Apr-03 07:33N 49°18' W 123°03'0 0.0
2014-Apr-03 06:33N 49°18' W 123°03'0 0.0
2014-Apr-03 05:33N 49°18' W 123°03'0 0.0
2014-Apr-03 04:33N 49°18' W 123°03'0 0.0
2014-Apr-03 03:33N 49°18' W 123°03'0 0.0
2014-Apr-03 02:33N 49°18' W 123°03'0 0.0
2014-Apr-03 01:33N 49°18' W 123°03'0 0.0
2014-Apr-03 00:33N 49°18' W 123°03'0 0.0
2014-Apr-02 23:33N 49°18' W 123°03'0 0.0
2014-Apr-02 22:33N 49°18' W 123°03'0 0.0
2014-Apr-02 21:33N 49°18' W 123°03'0 0.0
2014-Apr-02 20:33N 49°18' W 123°03'0 0.0
2014-Apr-02 18:33N 49°18' W 123°03'0 0.0
2014-Apr-02 17:33N 49°18' W 123°03'0 0.0
2014-Apr-02 16:33N 49°18' W 123°03'0 0.0
2014-Apr-02 15:33N 49°18' W 123°03'0 0.0
2014-Apr-02 14:33N 49°18' W 123°03'0 0.0
2014-Apr-02 13:33N 49°18' W 123°03'0 0.0
2014-Apr-02 12:33N 49°18' W 123°03'0 0.0
2014-Apr-02 11:33N 49°18' W 123°03'0 0.0
2014-Apr-02 10:33N 49°18' W 123°03'0 0.0
2014-Apr-02 09:33N 49°18' W 123°03'0 0.0
2014-Apr-02 08:33N 49°18' W 123°03'0 0.0
2014-Apr-02 07:33N 49°18' W 123°03'0 0.0
2014-Apr-02 06:33N 49°18' W 123°03'0 0.0
2014-Apr-02 05:33N 49°18' W 123°03'0 0.0
2014-Apr-02 04:33N 49°18' W 123°03'0 0.0
2014-Apr-02 03:33N 49°18' W 123°03'0 0.0
2014-Apr-02 02:33N 49°18' W 123°03'0 0.0
2014-Apr-02 01:33N 49°18' W 123°03'0 0.0
2014-Apr-02 00:33N 49°18' W 123°03'0 0.0
2014-Apr-01 23:33N 49°18' W 123°03'0 0.0
2014-Apr-01 22:33N 49°18' W 123°03'0 0.0
2014-Apr-01 21:33N 49°18' W 123°03'0 0.0
2014-Apr-01 20:33N 49°18' W 123°03'0 0.0
2014-Apr-01 19:33N 49°18' W 123°03'0 0.0
2014-Apr-01 18:33N 49°18' W 123°03'0 0.0
2014-Apr-01 17:33N 49°18' W 123°03'0 0.0
2014-Apr-01 16:33N 49°18' W 123°03'0 0.0
2014-Apr-01 15:33N 49°18' W 123°03'0 0.0
2014-Apr-01 14:33N 49°18' W 123°03'0 0.0
2014-Apr-01 13:33N 49°18' W 123°03'0 0.2
2014-Apr-01 12:34N 49°18' W 123°03'8 7.9
2014-Apr-01 11:34N 49°18' W 123°15'1313.1
2014-Apr-01 10:34N 49°06' W 123°21'1414.1
2014-Apr-01 09:33N 48°55' W 123°06'10 9.8
2014-Apr-01 08:33N 48°45' W 123°07'5 5.3
2014-Apr-01 07:34N 48°48' W 123°14'0 0.3
2014-Apr-01 06:31N 48°48' W 123°13'0 0.0
2014-Apr-01 05:31N 48°48' W 123°13'0 0.0
2014-Apr-01 04:28N 48°48' W 123°13'0 0.1
2014-Apr-01 03:31N 48°48' W 123°13'0 0.0
2014-Apr-01 02:31N 48°48' W 123°13'0 0.0
2014-Apr-01 01:31N 48°48' W 123°13'0 0.0
2014-Apr-01 00:31N 48°48' W 123°13'0 0.0
2014-Mar-31 23:31N 48°48' W 123°13'0 0.1
2014-Mar-31 22:31N 48°48' W 123°13'0 0.0
2014-Mar-31 21:31N 48°48' W 123°13'0 0.0
2014-Mar-31 20:31N 48°48' W 123°13'0 0.0
2014-Mar-31 19:31N 48°48' W 123°13'  

Dump ship's entire track history

sailing weather and tide predictions

Neptune Pioneer — 3EKH6 — position and weather